sensor_id;sensor_type;location;lat;lon;timestamp;pressure;altitude;pressure_sealevel;temperature;humidity
29315;BME280;16320;53.954;9.506;2023-03-21T08:35:22;101339.84;;;8.72;100.00
29315;BME280;16320;53.954;9.506;2023-03-21T08:38:27;101334.50;;;8.75;100.00
29315;BME280;16320;53.954;9.506;2023-03-21T08:41:35;101331.00;;;8.76;100.00
29315;BME280;16320;53.954;9.506;2023-03-21T08:44:40;101343.16;;;8.77;100.00
29315;BME280;16320;53.954;9.506;2023-03-21T08:47:45;101333.47;;;8.81;100.00
29315;BME280;16320;53.954;9.506;2023-03-21T08:50:50;101336.84;;;8.84;100.00
29315;BME280;16320;53.954;9.506;2023-03-21T08:53:55;101335.81;;;8.88;100.00
29315;BME280;16320;53.954;9.506;2023-03-21T08:56:59;101334.00;;;8.90;100.00
29315;BME280;16320;53.954;9.506;2023-03-21T09:00:05;101335.69;;;8.91;100.00
29315;BME280;16320;53.954;9.506;2023-03-21T09:03:20;101337.63;;;8.86;100.00
29315;BME280;16320;53.954;9.506;2023-03-21T09:06:25;101342.75;;;8.89;100.00
29315;BME280;16320;53.954;9.506;2023-03-21T09:09:31;101345.16;;;8.95;100.00
29315;BME280;16320;53.954;9.506;2023-03-21T09:12:35;101339.97;;;8.94;100.00
29315;BME280;16320;53.954;9.506;2023-03-21T09:15:40;101338.09;;;8.97;100.00
29315;BME280;16320;53.954;9.506;2023-03-21T09:18:45;101331.03;;;9.00;100.00
29315;BME280;16320;53.954;9.506;2023-03-21T09:21:55;101337.84;;;9.05;100.00
29315;BME280;16320;53.954;9.506;2023-03-21T09:25:06;101338.69;;;9.06;100.00
29315;BME280;16320;53.954;9.506;2023-03-21T09:28:15;101340.16;;;9.13;100.00
29315;BME280;16320;53.954;9.506;2023-03-21T09:31:21;101341.16;;;9.10;100.00
29315;BME280;16320;53.954;9.506;2023-03-21T09:34:28;101336.66;;;9.14;100.00
29315;BME280;16320;53.954;9.506;2023-03-21T09:37:35;101334.94;;;9.13;100.00
29315;BME280;16320;53.954;9.506;2023-03-21T09:40:48;101334.13;;;9.11;100.00
29315;BME280;16320;53.954;9.506;2023-03-21T09:47:30;101335.75;;;9.15;100.00
29315;BME280;16320;53.954;9.506;2023-03-21T09:50:41;101326.75;;;9.22;100.00
29315;BME280;16320;53.954;9.506;2023-03-21T09:53:49;101338.84;;;9.26;100.00
29315;BME280;16320;53.954;9.506;2023-03-21T09:56:57;101331.59;;;9.33;100.00
29315;BME280;16320;53.954;9.506;2023-03-21T10:00:11;101333.94;;;9.41;100.00
29315;BME280;16320;53.954;9.506;2023-03-21T10:03:28;101331.03;;;9.48;100.00
29315;BME280;16320;53.954;9.506;2023-03-21T10:06:35;101335.41;;;9.48;100.00
29315;BME280;16320;53.954;9.506;2023-03-21T10:09:45;101333.34;;;9.56;100.00
29315;BME280;16320;53.954;9.506;2023-03-21T10:12:54;101329.94;;;9.54;100.00
29315;BME280;16320;53.954;9.506;2023-03-21T10:16:18;101331.63;;;9.55;100.00
29315;BME280;16320;53.954;9.506;2023-03-21T10:19:27;101329.06;;;9.53;100.00
29315;BME280;16320;53.954;9.506;2023-03-21T10:22:31;101326.28;;;9.58;100.00
29315;BME280;16320;53.954;9.506;2023-03-21T10:25:47;101330.63;;;9.59;100.00
29315;BME280;16320;53.954;9.506;2023-03-21T10:28:57;101321.25;;;9.52;100.00
29315;BME280;16320;53.954;9.506;2023-03-21T10:32:03;101320.19;;;9.58;100.00
29315;BME280;16320;53.954;9.506;2023-03-21T10:35:12;101325.44;;;9.58;100.00
29315;BME280;16320;53.954;9.506;2023-03-21T10:38:20;101322.53;;;9.65;100.00
29315;BME280;16320;53.954;9.506;2023-03-21T10:41:26;101316.78;;;9.56;100.00
29315;BME280;16320;53.954;9.506;2023-03-21T10:44:33;101316.78;;;9.56;100.00
29315;BME280;16320;53.954;9.506;2023-03-21T10:47:39;101308.03;;;9.55;100.00
29315;BME280;16320;53.954;9.506;2023-03-21T10:50:53;101306.28;;;9.56;100.00
29315;BME280;16320;53.954;9.506;2023-03-21T10:54:07;101305.28;;;9.58;100.00
29315;BME280;16320;53.954;9.506;2023-03-21T10:57:21;101303.59;;;9.57;100.00
29315;BME280;16320;53.954;9.506;2023-03-21T11:00:38;101302.56;;;9.61;100.00
29315;BME280;16320;53.954;9.506;2023-03-21T11:03:47;101293.13;;;9.57;100.00
29315;BME280;16320;53.954;9.506;2023-03-21T11:06:57;101297.50;;;9.57;100.00
29315;BME280;16320;53.954;9.506;2023-03-21T11:10:26;101291.28;;;9.59;100.00
29315;BME280;16320;53.954;9.506;2023-03-21T11:13:41;101291.16;;;9.62;100.00
29315;BME280;16320;53.954;9.506;2023-03-21T11:16:46;101280.06;;;9.78;100.00
29315;BME280;16320;53.954;9.506;2023-03-21T11:20:03;101288.75;;;9.80;100.00
29315;BME280;16320;53.954;9.506;2023-03-21T11:23:27;101291.03;;;9.87;100.00
29315;BME280;16320;53.954;9.506;2023-03-21T11:26:36;101283.00;;;9.92;100.00
29315;BME280;16320;53.954;9.506;2023-03-21T11:29:48;101282.09;;;9.93;100.00
29315;BME280;16320;53.954;9.506;2023-03-21T11:33:00;101270.53;;;9.97;100.00
29315;BME280;16320;53.954;9.506;2023-03-21T11:39:32;101269.56;;;10.00;100.00
29315;BME280;16320;53.954;9.506;2023-03-21T11:42:43;101279.06;;;10.02;100.00
29315;BME280;16320;53.954;9.506;2023-03-21T11:46:12;101266.66;;;10.07;100.00
29315;BME280;16320;53.954;9.506;2023-03-21T11:49:24;101262.47;;;10.02;100.00
29315;BME280;16320;53.954;9.506;2023-03-21T12:06:59;101233.91;;;9.94;100.00
29315;BME280;16320;53.954;9.506;2023-03-21T12:11:16;101230.16;;;10.01;100.00
29315;BME280;16320;53.954;9.506;2023-03-21T12:18:05;101227.47;;;10.03;100.00
29315;BME280;16320;53.954;9.506;2023-03-21T12:24:55;101215.25;;;10.02;100.00
29315;BME280;16320;53.954;9.506;2023-03-21T12:36:20;101200.03;;;10.10;100.00
29315;BME280;16320;53.954;9.506;2023-03-21T12:39:34;101197.75;;;10.23;100.00
29315;BME280;16320;53.954;9.506;2023-03-21T12:42:51;101199.47;;;10.24;100.00
29315;BME280;16320;53.954;9.506;2023-03-21T12:46:04;101180.44;;;10.19;100.00
29315;BME280;16320;53.954;9.506;2023-03-21T12:49:34;101172.63;;;10.17;100.00
29315;BME280;16320;53.954;9.506;2023-03-21T12:52:46;101168.94;;;10.21;100.00
29315;BME280;16320;53.954;9.506;2023-03-21T12:55:53;101165.41;;;10.22;100.00
29315;BME280;16320;53.954;9.506;2023-03-21T13:02:36;101145.22;;;10.23;100.00
29315;BME280;16320;53.954;9.506;2023-03-21T13:05:57;101150.63;;;10.20;100.00
29315;BME280;16320;53.954;9.506;2023-03-21T13:09:17;101140.13;;;10.20;100.00
29315;BME280;16320;53.954;9.506;2023-03-21T13:13:10;101139.41;;;10.16;100.00
29315;BME280;16320;53.954;9.506;2023-03-21T13:16:32;101129.63;;;10.20;100.00
29315;BME280;16320;53.954;9.506;2023-03-21T13:19:52;101120.06;;;10.19;100.00
29315;BME280;16320;53.954;9.506;2023-03-21T13:23:00;101115.91;;;10.13;100.00
29315;BME280;16320;53.954;9.506;2023-03-21T13:26:09;101111.31;;;10.18;100.00
29315;BME280;16320;53.954;9.506;2023-03-21T13:35:40;101110.19;;;10.24;100.00
29315;BME280;16320;53.954;9.506;2023-03-21T13:38:52;101111.88;;;10.25;100.00
29315;BME280;16320;53.954;9.506;2023-03-21T13:42:03;101105.09;;;10.21;100.00
29315;BME280;16320;53.954;9.506;2023-03-21T13:45:21;101096.06;;;10.26;100.00
29315;BME280;16320;53.954;9.506;2023-03-21T13:48:59;101101.53;;;10.22;100.00
29315;BME280;16320;53.954;9.506;2023-03-21T13:55:34;101101.00;;;10.34;100.00
29315;BME280;16320;53.954;9.506;2023-03-21T13:59:00;101095.28;;;10.24;100.00
29315;BME280;16320;53.954;9.506;2023-03-21T14:02:31;101091.03;;;10.22;100.00
29315;BME280;16320;53.954;9.506;2023-03-21T14:05:38;101086.78;;;10.19;100.00
29315;BME280;16320;53.954;9.506;2023-03-21T14:08:46;101078.97;;;10.18;100.00
29315;BME280;16320;53.954;9.506;2023-03-21T14:12:16;101080.53;;;10.22;100.00
29315;BME280;16320;53.954;9.506;2023-03-21T14:15:44;101081.91;;;10.10;100.00
29315;BME280;16320;53.954;9.506;2023-03-21T14:19:03;101069.38;;;10.17;100.00
29315;BME280;16320;53.954;9.506;2023-03-21T14:22:12;101073.84;;;10.15;100.00
29315;BME280;16320;53.954;9.506;2023-03-21T14:25:20;101060.84;;;10.12;100.00
29315;BME280;16320;53.954;9.506;2023-03-21T14:28:48;101067.94;;;10.10;100.00
29315;BME280;16320;53.954;9.506;2023-03-21T14:31:55;101062.63;;;10.11;100.00
29315;BME280;16320;53.954;9.506;2023-03-21T14:35:01;101064.47;;;10.09;100.00
29315;BME280;16320;53.954;9.506;2023-03-21T14:38:20;101058.38;;;10.08;100.00
29315;BME280;16320;53.954;9.506;2023-03-21T14:41:28;101056.13;;;10.20;100.00
29315;BME280;16320;53.954;9.506;2023-03-21T14:44:34;101049.13;;;10.20;100.00
29315;BME280;16320;53.954;9.506;2023-03-21T14:48:05;101055.19;;;10.21;100.00
29315;BME280;16320;53.954;9.506;2023-03-21T14:51:11;101051.00;;;10.17;100.00
29315;BME280;16320;53.954;9.506;2023-03-21T14:54:17;101042.75;;;10.05;100.00
29315;BME280;16320;53.954;9.506;2023-03-21T14:57:26;101043.69;;;10.04;100.00
29315;BME280;16320;53.954;9.506;2023-03-21T15:00:32;101039.34;;;10.03;100.00
29315;BME280;16320;53.954;9.506;2023-03-21T15:03:39;101036.22;;;9.95;100.00
29315;BME280;16320;53.954;9.506;2023-03-21T15:06:56;101017.56;;;10.01;100.00
29315;BME280;16320;53.954;9.506;2023-03-21T15:10:07;101015.66;;;10.05;100.00
29315;BME280;16320;53.954;9.506;2023-03-21T15:13:18;101012.84;;;10.10;100.00
29315;BME280;16320;53.954;9.506;2023-03-21T15:16:24;101018.53;;;10.19;100.00
29315;BME280;16320;53.954;9.506;2023-03-21T15:19:36;101003.47;;;10.23;100.00
29315;BME280;16320;53.954;9.506;2023-03-21T15:22:49;101000.34;;;10.15;100.00
29315;BME280;16320;53.954;9.506;2023-03-21T15:25:54;100989.91;;;10.13;100.00
29315;BME280;16320;53.954;9.506;2023-03-21T15:28:59;100986.44;;;10.13;100.00
29315;BME280;16320;53.954;9.506;2023-03-21T15:32:06;100988.81;;;10.19;100.00
29315;BME280;16320;53.954;9.506;2023-03-21T15:35:23;100984.53;;;10.16;100.00
29315;BME280;16320;53.954;9.506;2023-03-21T15:41:39;100973.41;;;10.11;100.00
29315;BME280;16320;53.954;9.506;2023-03-21T15:45:07;100980.50;;;10.09;100.00
29315;BME280;16320;53.954;9.506;2023-03-21T15:48:49;100971.75;;;10.08;100.00
29315;BME280;16320;53.954;9.506;2023-03-21T16:01:07;100961.53;;;10.02;100.00
29315;BME280;16320;53.954;9.506;2023-03-21T16:05:21;100957.22;;;10.01;100.00
29315;BME280;16320;53.954;9.506;2023-03-21T16:10:04;100950.25;;;10.00;100.00
29315;BME280;16320;53.954;9.506;2023-03-21T16:18:31;100957.34;;;9.98;100.00
29315;BME280;16320;53.954;9.506;2023-03-21T16:22:43;100963.81;;;9.91;100.00
29315;BME280;16320;53.954;9.506;2023-03-21T16:31:52;100945.34;;;9.93;100.00
29315;BME280;16320;53.954;9.506;2023-03-21T16:36:01;100935.94;;;9.88;100.00
29315;BME280;16320;53.954;9.506;2023-03-21T16:39:23;100933.88;;;9.95;100.00
29315;BME280;16320;53.954;9.506;2023-03-21T16:42:47;100926.41;;;9.86;100.00
29315;BME280;16320;53.954;9.506;2023-03-21T17:09:26;100884.38;;;9.68;100.00
29315;BME280;16320;53.954;9.506;2023-03-21T17:12:39;100900.31;;;9.64;100.00
29315;BME280;16320;53.954;9.506;2023-03-21T17:16:08;100897.63;;;9.65;100.00
29315;BME280;16320;53.954;9.506;2023-03-21T17:19:40;100904.56;;;9.66;100.00
29315;BME280;16320;53.954;9.506;2023-03-21T17:33:52;100890.69;;;9.64;100.00
29315;BME280;16320;53.954;9.506;2023-03-21T17:38:39;100891.00;;;9.57;100.00
29315;BME280;16320;53.954;9.506;2023-03-21T17:47:35;100884.41;;;9.48;100.00
29315;BME280;16320;53.954;9.506;2023-03-21T17:51:10;100891.88;;;9.57;100.00
29315;BME280;16320;53.954;9.506;2023-03-21T17:58:33;100884.03;;;9.57;100.00
29315;BME280;16320;53.954;9.506;2023-03-21T18:02:04;100877.97;;;9.55;100.00
29315;BME280;16320;53.954;9.506;2023-03-21T18:05:11;100885.97;;;9.52;100.00
29315;BME280;16320;53.954;9.506;2023-03-21T18:08:23;100879.94;;;9.50;100.00
29315;BME280;16320;53.954;9.506;2023-03-21T18:15:13;100888.75;;;9.49;100.00
29315;BME280;16320;53.954;9.506;2023-03-21T18:23:00;100882.84;;;9.44;100.00
29315;BME280;16320;53.954;9.506;2023-03-21T18:43:49;100881.28;;;9.40;100.00
29315;BME280;16320;53.954;9.506;2023-03-21T18:47:51;100870.66;;;9.43;100.00
29315;BME280;16320;53.954;9.506;2023-03-21T18:56:38;100887.19;;;9.45;100.00
29315;BME280;16320;53.954;9.506;2023-03-21T19:00:25;100886.28;;;9.46;100.00
29315;BME280;16320;53.954;9.506;2023-03-21T19:04:10;100882.63;;;9.48;100.00
29315;BME280;16320;53.954;9.506;2023-03-21T19:08:57;100870.41;;;9.49;100.00
29315;BME280;16320;53.954;9.506;2023-03-21T19:13:31;100867.84;;;9.47;100.00
29315;BME280;16320;53.954;9.506;2023-03-21T19:34:15;100863.25;;;9.52;100.00
29315;BME280;16320;53.954;9.506;2023-03-21T19:53:44;100868.16;;;9.60;100.00
29315;BME280;16320;53.954;9.506;2023-03-21T19:58:12;100854.09;;;9.61;100.00
29315;BME280;16320;53.954;9.506;2023-03-21T20:02:19;100848.16;;;9.58;100.00
29315;BME280;16320;53.954;9.506;2023-03-21T20:05:40;100850.56;;;9.62;100.00
29315;BME280;16320;53.954;9.506;2023-03-21T20:08:45;100850.28;;;9.68;100.00
29315;BME280;16320;53.954;9.506;2023-03-21T20:12:10;100849.47;;;9.66;100.00
29315;BME280;16320;53.954;9.506;2023-03-21T20:15:15;100846.78;;;9.68;100.00
29315;BME280;16320;53.954;9.506;2023-03-21T20:18:25;100847.66;;;9.68;100.00
29315;BME280;16320;53.954;9.506;2023-03-21T20:21:32;100845.03;;;9.68;100.00
29315;BME280;16320;53.954;9.506;2023-03-21T20:24:50;100845.59;;;9.75;100.00
29315;BME280;16320;53.954;9.506;2023-03-21T20:27:55;100839.66;;;9.71;100.00
29315;BME280;16320;53.954;9.506;2023-03-21T20:31:18;100842.28;;;9.71;100.00
29315;BME280;16320;53.954;9.506;2023-03-21T20:34:23;100844.03;;;9.71;100.00
29315;BME280;16320;53.954;9.506;2023-03-21T20:37:29;100843.06;;;9.74;100.00
29315;BME280;16320;53.954;9.506;2023-03-21T20:40:37;100846.44;;;9.76;100.00
29315;BME280;16320;53.954;9.506;2023-03-21T20:43:44;100850.16;;;9.71;100.00
29315;BME280;16320;53.954;9.506;2023-03-21T20:47:14;100848.38;;;9.72;100.00
29315;BME280;16320;53.954;9.506;2023-03-21T20:50:20;100843.06;;;9.74;100.00
29315;BME280;16320;53.954;9.506;2023-03-21T20:53:29;100844.81;;;9.73;100.00
29315;BME280;16320;53.954;9.506;2023-03-21T20:56:42;100843.91;;;9.74;100.00
29315;BME280;16320;53.954;9.506;2023-03-21T20:59:47;100851.84;;;9.73;100.00
29315;BME280;16320;53.954;9.506;2023-03-21T21:02:54;100839.50;;;9.75;100.00
29315;BME280;16320;53.954;9.506;2023-03-21T21:06:28;100845.69;;;9.74;100.00
29315;BME280;16320;53.954;9.506;2023-03-21T21:09:36;100839.50;;;9.75;100.00
29315;BME280;16320;53.954;9.506;2023-03-21T21:12:44;100844.75;;;9.75;100.00
29315;BME280;16320;53.954;9.506;2023-03-21T21:15:52;100834.25;;;9.75;100.00
29315;BME280;16320;53.954;9.506;2023-03-21T21:18:58;100840.38;;;9.75;100.00
29315;BME280;16320;53.954;9.506;2023-03-21T21:22:05;100833.41;;;9.74;100.00
29315;BME280;16320;53.954;9.506;2023-03-21T21:25:09;100825.47;;;9.76;100.00
29315;BME280;16320;53.954;9.506;2023-03-21T21:28:14;100821.13;;;9.75;100.00
29315;BME280;16320;53.954;9.506;2023-03-21T21:31:19;100825.59;;;9.73;100.00
29315;BME280;16320;53.954;9.506;2023-03-21T21:34:25;100828.22;;;9.73;100.00
29315;BME280;16320;53.954;9.506;2023-03-21T21:37:29;100819.50;;;9.72;100.00
29315;BME280;16320;53.954;9.506;2023-03-21T21:40:37;100815.13;;;9.73;100.00
29315;BME280;16320;53.954;9.506;2023-03-21T21:43:41;100816.81;;;9.74;100.00
29315;BME280;16320;53.954;9.506;2023-03-21T21:46:46;100818.56;;;9.73;100.00
29315;BME280;16320;53.954;9.506;2023-03-21T21:49:51;100813.44;;;9.71;100.00
29315;BME280;16320;53.954;9.506;2023-03-21T21:52:56;100811.50;;;9.75;100.00
29315;BME280;16320;53.954;9.506;2023-03-21T21:56:03;100804.75;;;9.69;100.00
29315;BME280;16320;53.954;9.506;2023-03-21T21:59:09;100809.88;;;9.73;100.00
29315;BME280;16320;53.954;9.506;2023-03-21T22:02:15;100805.63;;;9.70;100.00
29315;BME280;16320;53.954;9.506;2023-03-21T22:05:22;100798.47;;;9.74;100.00
29315;BME280;16320;53.954;9.506;2023-03-21T22:08:28;100793.16;;;9.75;100.00
29315;BME280;16320;53.954;9.506;2023-03-21T22:11:35;100787.34;;;9.68;100.00
29315;BME280;16320;53.954;9.506;2023-03-21T22:14:40;100788.94;;;9.71;100.00
29315;BME280;16320;53.954;9.506;2023-03-21T22:17:45;100783.63;;;9.73;100.00
29315;BME280;16320;53.954;9.506;2023-03-21T22:20:49;100779.22;;;9.73;100.00
29315;BME280;16320;53.954;9.506;2023-03-21T22:23:58;100774.38;;;9.65;100.00
29315;BME280;16320;53.954;9.506;2023-03-21T22:27:03;100770.31;;;9.58;100.00
29315;BME280;16320;53.954;9.506;2023-03-21T22:30:11;100772.25;;;9.55;100.00
29315;BME280;16320;53.954;9.506;2023-03-21T22:33:17;100775.84;;;9.52;100.00
29315;BME280;16320;53.954;9.506;2023-03-21T22:36:22;100769.91;;;9.48;100.00
29315;BME280;16320;53.954;9.506;2023-03-21T22:39:28;100763.94;;;9.45;100.00
29315;BME280;16320;53.954;9.506;2023-03-21T22:42:37;100755.47;;;9.40;100.00
29315;BME280;16320;53.954;9.506;2023-03-21T22:45:42;100752.00;;;9.39;100.00
29315;BME280;16320;53.954;9.506;2023-03-21T22:48:46;100749.44;;;9.38;100.00
29315;BME280;16320;53.954;9.506;2023-03-21T22:51:52;100745.25;;;9.33;100.00
29315;BME280;16320;53.954;9.506;2023-03-21T22:54:57;100743.72;;;9.29;100.00
29315;BME280;16320;53.954;9.506;2023-03-21T22:58:08;100732.41;;;9.27;100.00
29315;BME280;16320;53.954;9.506;2023-03-21T23:01:12;100735.34;;;9.21;100.00
29315;BME280;16320;53.954;9.506;2023-03-21T23:04:18;100735.34;;;9.21;100.00
29315;BME280;16320;53.954;9.506;2023-03-21T23:07:23;100736.25;;;9.20;100.00
29315;BME280;16320;53.954;9.506;2023-03-21T23:10:28;100725.97;;;9.15;100.00
29315;BME280;16320;53.954;9.506;2023-03-21T23:13:33;100722.44;;;9.16;100.00
29315;BME280;16320;53.954;9.506;2023-03-21T23:16:37;100723.44;;;9.14;100.00
29315;BME280;16320;53.954;9.506;2023-03-21T23:19:42;100722.84;;;9.07;100.00
29315;BME280;16320;53.954;9.506;2023-03-21T23:22:46;100726.31;;;9.08;100.00
29315;BME280;16320;53.954;9.506;2023-03-21T23:25:51;100724.78;;;9.04;100.00
29315;BME280;16320;53.954;9.506;2023-03-21T23:28:55;100721.44;;;9.00;100.00
29315;BME280;16320;53.954;9.506;2023-03-21T23:32:00;100720.72;;;8.96;100.00
29315;BME280;16320;53.954;9.506;2023-03-21T23:35:05;100723.47;;;8.93;100.00
29315;BME280;16320;53.954;9.506;2023-03-21T23:38:10;100719.38;;;8.88;100.00
29315;BME280;16320;53.954;9.506;2023-03-21T23:41:19;100716.81;;;8.86;100.00
29315;BME280;16320;53.954;9.506;2023-03-21T23:44:27;100717.00;;;8.82;100.00
29315;BME280;16320;53.954;9.506;2023-03-21T23:47:35;100707.53;;;8.79;100.00
29315;BME280;16320;53.954;9.506;2023-03-21T23:50:43;100705.69;;;8.81;100.00
29315;BME280;16320;53.954;9.506;2023-03-21T23:53:48;100699.53;;;8.82;100.00
29315;BME280;16320;53.954;9.506;2023-03-21T23:56:56;100704.75;;;8.82;100.00
